sensor_id;sensor_type;location;lat;lon;timestamp;P1;durP1;ratioP1;P2;durP2;ratioP2
10729;SDS011;5416;59.258;18.128;2023-04-01T00:02:14;2.67;;;2.57;;
10729;SDS011;5416;59.258;18.128;2023-04-01T00:04:43;3.17;;;3.07;;
10729;SDS011;5416;59.258;18.128;2023-04-01T00:07:10;3.03;;;2.93;;
10729;SDS011;5416;59.258;18.128;2023-04-01T00:09:38;2.83;;;2.73;;
10729;SDS011;5416;59.258;18.128;2023-04-01T00:12:05;3.17;;;3.07;;
10729;SDS011;5416;59.258;18.128;2023-04-01T00:14:32;3.13;;;3.03;;
10729;SDS011;5416;59.258;18.128;2023-04-01T00:17:02;3.03;;;2.93;;
10729;SDS011;5416;59.258;18.128;2023-04-01T00:19:29;2.83;;;2.73;;
10729;SDS011;5416;59.258;18.128;2023-04-01T00:21:58;2.90;;;2.80;;
10729;SDS011;5416;59.258;18.128;2023-04-01T00:24:26;2.73;;;2.63;;
10729;SDS011;5416;59.258;18.128;2023-04-01T00:26:54;3.00;;;2.90;;
10729;SDS011;5416;59.258;18.128;2023-04-01T00:29:21;3.07;;;2.97;;
10729;SDS011;5416;59.258;18.128;2023-04-01T00:31:49;3.20;;;3.10;;
10729;SDS011;5416;59.258;18.128;2023-04-01T00:34:16;3.00;;;2.90;;
10729;SDS011;5416;59.258;18.128;2023-04-01T00:36:43;2.73;;;2.63;;
10729;SDS011;5416;59.258;18.128;2023-04-01T00:39:12;3.10;;;3.00;;
10729;SDS011;5416;59.258;18.128;2023-04-01T00:41:39;3.23;;;3.13;;
10729;SDS011;5416;59.258;18.128;2023-04-01T00:44:17;3.27;;;3.17;;
10729;SDS011;5416;59.258;18.128;2023-04-01T00:46:44;2.97;;;2.87;;
10729;SDS011;5416;59.258;18.128;2023-04-01T00:49:12;3.20;;;3.10;;
10729;SDS011;5416;59.258;18.128;2023-04-01T00:51:39;3.20;;;3.10;;
10729;SDS011;5416;59.258;18.128;2023-04-01T00:54:07;3.03;;;2.93;;
10729;SDS011;5416;59.258;18.128;2023-04-01T00:56:37;2.90;;;2.80;;
10729;SDS011;5416;59.258;18.128;2023-04-01T00:59:08;3.03;;;2.93;;
10729;SDS011;5416;59.258;18.128;2023-04-01T01:01:37;3.17;;;3.07;;
10729;SDS011;5416;59.258;18.128;2023-04-01T01:04:04;3.10;;;3.00;;
10729;SDS011;5416;59.258;18.128;2023-04-01T01:06:39;2.97;;;2.87;;
10729;SDS011;5416;59.258;18.128;2023-04-01T01:09:13;2.83;;;2.73;;
10729;SDS011;5416;59.258;18.128;2023-04-01T01:11:45;3.03;;;2.93;;
10729;SDS011;5416;59.258;18.128;2023-04-01T01:14:26;2.87;;;2.77;;
10729;SDS011;5416;59.258;18.128;2023-04-01T01:16:55;3.00;;;2.90;;
10729;SDS011;5416;59.258;18.128;2023-04-01T01:19:33;3.30;;;3.20;;
10729;SDS011;5416;59.258;18.128;2023-04-01T01:27:49;2.90;;;2.80;;
10729;SDS011;5416;59.258;18.128;2023-04-01T01:30:21;2.73;;;2.63;;
10729;SDS011;5416;59.258;18.128;2023-04-01T01:32:58;3.10;;;3.00;;
10729;SDS011;5416;59.258;18.128;2023-04-01T01:35:30;3.00;;;2.90;;
10729;SDS011;5416;59.258;18.128;2023-04-01T01:37:59;3.20;;;3.10;;
10729;SDS011;5416;59.258;18.128;2023-04-01T01:40:28;3.30;;;3.20;;
10729;SDS011;5416;59.258;18.128;2023-04-01T01:42:59;2.77;;;2.67;;
10729;SDS011;5416;59.258;18.128;2023-04-01T01:45:27;2.70;;;2.60;;
10729;SDS011;5416;59.258;18.128;2023-04-01T01:47:55;2.43;;;2.33;;
10729;SDS011;5416;59.258;18.128;2023-04-01T01:50:23;2.80;;;2.70;;
10729;SDS011;5416;59.258;18.128;2023-04-01T01:53:00;3.00;;;2.90;;
10729;SDS011;5416;59.258;18.128;2023-04-01T01:55:29;3.40;;;3.30;;
10729;SDS011;5416;59.258;18.128;2023-04-01T01:57:57;3.03;;;2.93;;
10729;SDS011;5416;59.258;18.128;2023-04-01T02:00:26;3.17;;;3.07;;
10729;SDS011;5416;59.258;18.128;2023-04-01T02:02:54;3.00;;;2.90;;
10729;SDS011;5416;59.258;18.128;2023-04-01T02:05:23;3.40;;;3.30;;
10729;SDS011;5416;59.258;18.128;2023-04-01T02:07:52;3.30;;;3.20;;
10729;SDS011;5416;59.258;18.128;2023-04-01T02:10:24;2.50;;;2.40;;
10729;SDS011;5416;59.258;18.128;2023-04-01T02:12:52;3.17;;;3.07;;
10729;SDS011;5416;59.258;18.128;2023-04-01T02:15:20;3.10;;;3.00;;
10729;SDS011;5416;59.258;18.128;2023-04-01T02:17:48;3.13;;;3.03;;
10729;SDS011;5416;59.258;18.128;2023-04-01T02:20:17;3.30;;;3.20;;
10729;SDS011;5416;59.258;18.128;2023-04-01T02:22:46;3.57;;;3.47;;
10729;SDS011;5416;59.258;18.128;2023-04-01T02:25:16;3.10;;;3.00;;
10729;SDS011;5416;59.258;18.128;2023-04-01T02:27:46;3.17;;;3.07;;
10729;SDS011;5416;59.258;18.128;2023-04-01T02:30:14;3.50;;;3.40;;
10729;SDS011;5416;59.258;18.128;2023-04-01T02:32:42;3.23;;;3.13;;
10729;SDS011;5416;59.258;18.128;2023-04-01T02:35:10;2.90;;;2.80;;
10729;SDS011;5416;59.258;18.128;2023-04-01T02:37:37;3.30;;;3.20;;
10729;SDS011;5416;59.258;18.128;2023-04-01T02:40:07;2.77;;;2.67;;
10729;SDS011;5416;59.258;18.128;2023-04-01T02:42:35;3.17;;;3.07;;
10729;SDS011;5416;59.258;18.128;2023-04-01T02:45:05;3.53;;;3.43;;
10729;SDS011;5416;59.258;18.128;2023-04-01T02:47:32;3.17;;;3.07;;
10729;SDS011;5416;59.258;18.128;2023-04-01T02:49:59;3.03;;;2.93;;
10729;SDS011;5416;59.258;18.128;2023-04-01T02:52:27;2.87;;;2.77;;
10729;SDS011;5416;59.258;18.128;2023-04-01T02:54:55;3.00;;;2.90;;
10729;SDS011;5416;59.258;18.128;2023-04-01T02:57:22;3.37;;;3.27;;
10729;SDS011;5416;59.258;18.128;2023-04-01T02:59:50;3.33;;;3.23;;
10729;SDS011;5416;59.258;18.128;2023-04-01T03:02:18;3.27;;;3.17;;
10729;SDS011;5416;59.258;18.128;2023-04-01T03:04:46;3.03;;;2.93;;
10729;SDS011;5416;59.258;18.128;2023-04-01T03:07:13;3.50;;;3.40;;
10729;SDS011;5416;59.258;18.128;2023-04-01T03:09:40;2.73;;;2.63;;
10729;SDS011;5416;59.258;18.128;2023-04-01T03:12:08;3.03;;;2.93;;
10729;SDS011;5416;59.258;18.128;2023-04-01T03:14:35;2.83;;;2.73;;
10729;SDS011;5416;59.258;18.128;2023-04-01T03:17:02;2.73;;;2.63;;
10729;SDS011;5416;59.258;18.128;2023-04-01T03:19:32;3.13;;;3.03;;
10729;SDS011;5416;59.258;18.128;2023-04-01T03:21:59;2.93;;;2.83;;
10729;SDS011;5416;59.258;18.128;2023-04-01T03:24:26;3.13;;;3.03;;
10729;SDS011;5416;59.258;18.128;2023-04-01T03:26:54;2.90;;;2.80;;
10729;SDS011;5416;59.258;18.128;2023-04-01T03:29:21;3.07;;;2.97;;
10729;SDS011;5416;59.258;18.128;2023-04-01T03:31:48;3.00;;;2.90;;
10729;SDS011;5416;59.258;18.128;2023-04-01T03:34:16;3.10;;;3.00;;
10729;SDS011;5416;59.258;18.128;2023-04-01T03:36:44;3.20;;;3.10;;
10729;SDS011;5416;59.258;18.128;2023-04-01T03:39:12;3.00;;;2.90;;
10729;SDS011;5416;59.258;18.128;2023-04-01T03:41:39;3.10;;;3.00;;
10729;SDS011;5416;59.258;18.128;2023-04-01T03:44:06;3.40;;;3.30;;
10729;SDS011;5416;59.258;18.128;2023-04-01T03:46:33;3.37;;;3.27;;
10729;SDS011;5416;59.258;18.128;2023-04-01T03:49:01;3.20;;;3.10;;
10729;SDS011;5416;59.258;18.128;2023-04-01T03:51:28;3.43;;;3.33;;
10729;SDS011;5416;59.258;18.128;2023-04-01T03:53:57;2.77;;;2.67;;
10729;SDS011;5416;59.258;18.128;2023-04-01T03:56:24;3.00;;;2.90;;
10729;SDS011;5416;59.258;18.128;2023-04-01T03:58:52;3.03;;;2.93;;
10729;SDS011;5416;59.258;18.128;2023-04-01T04:01:19;2.97;;;2.87;;
10729;SDS011;5416;59.258;18.128;2023-04-01T04:03:47;2.70;;;2.60;;
10729;SDS011;5416;59.258;18.128;2023-04-01T04:06:15;3.10;;;3.00;;
10729;SDS011;5416;59.258;18.128;2023-04-01T04:08:44;3.13;;;3.03;;
10729;SDS011;5416;59.258;18.128;2023-04-01T04:11:12;2.70;;;2.60;;
10729;SDS011;5416;59.258;18.128;2023-04-01T04:13:40;3.00;;;2.90;;
10729;SDS011;5416;59.258;18.128;2023-04-01T04:16:07;3.03;;;2.93;;
10729;SDS011;5416;59.258;18.128;2023-04-01T04:18:34;3.00;;;2.90;;
10729;SDS011;5416;59.258;18.128;2023-04-01T04:21:02;3.10;;;3.00;;
10729;SDS011;5416;59.258;18.128;2023-04-01T04:23:29;2.93;;;2.83;;
10729;SDS011;5416;59.258;18.128;2023-04-01T04:25:59;2.80;;;2.70;;
10729;SDS011;5416;59.258;18.128;2023-04-01T04:28:28;2.93;;;2.83;;
10729;SDS011;5416;59.258;18.128;2023-04-01T04:30:56;3.00;;;2.90;;
10729;SDS011;5416;59.258;18.128;2023-04-01T04:33:24;3.13;;;3.03;;
10729;SDS011;5416;59.258;18.128;2023-04-01T04:35:51;3.57;;;3.47;;
10729;SDS011;5416;59.258;18.128;2023-04-01T04:38:20;2.80;;;2.70;;
10729;SDS011;5416;59.258;18.128;2023-04-01T04:40:47;3.07;;;2.97;;
10729;SDS011;5416;59.258;18.128;2023-04-01T04:43:15;2.90;;;2.80;;
10729;SDS011;5416;59.258;18.128;2023-04-01T04:45:44;3.13;;;3.03;;
10729;SDS011;5416;59.258;18.128;2023-04-01T04:48:12;3.27;;;3.17;;
10729;SDS011;5416;59.258;18.128;2023-04-01T04:50:43;2.90;;;2.80;;
10729;SDS011;5416;59.258;18.128;2023-04-01T04:53:10;2.80;;;2.70;;
10729;SDS011;5416;59.258;18.128;2023-04-01T04:55:42;3.10;;;3.00;;
10729;SDS011;5416;59.258;18.128;2023-04-01T04:58:10;3.13;;;3.03;;
10729;SDS011;5416;59.258;18.128;2023-04-01T05:00:37;2.80;;;2.70;;
10729;SDS011;5416;59.258;18.128;2023-04-01T05:03:05;3.17;;;3.07;;
10729;SDS011;5416;59.258;18.128;2023-04-01T05:05:33;3.43;;;3.33;;
10729;SDS011;5416;59.258;18.128;2023-04-01T05:08:00;3.13;;;3.03;;
10729;SDS011;5416;59.258;18.128;2023-04-01T05:10:28;3.40;;;3.30;;
10729;SDS011;5416;59.258;18.128;2023-04-01T05:12:56;3.60;;;3.50;;
10729;SDS011;5416;59.258;18.128;2023-04-01T05:15:23;3.53;;;3.43;;
10729;SDS011;5416;59.258;18.128;2023-04-01T05:17:51;2.70;;;2.60;;
10729;SDS011;5416;59.258;18.128;2023-04-01T05:20:19;2.60;;;2.50;;
10729;SDS011;5416;59.258;18.128;2023-04-01T05:22:47;3.20;;;3.10;;
10729;SDS011;5416;59.258;18.128;2023-04-01T05:25:14;3.20;;;3.10;;
10729;SDS011;5416;59.258;18.128;2023-04-01T05:27:41;2.90;;;2.80;;
10729;SDS011;5416;59.258;18.128;2023-04-01T05:30:09;2.60;;;2.50;;
10729;SDS011;5416;59.258;18.128;2023-04-01T05:32:36;2.90;;;2.80;;
10729;SDS011;5416;59.258;18.128;2023-04-01T05:35:04;3.07;;;2.97;;
10729;SDS011;5416;59.258;18.128;2023-04-01T05:37:34;2.87;;;2.77;;
10729;SDS011;5416;59.258;18.128;2023-04-01T05:40:01;3.23;;;3.13;;
10729;SDS011;5416;59.258;18.128;2023-04-01T05:42:29;3.17;;;3.07;;
10729;SDS011;5416;59.258;18.128;2023-04-01T05:44:56;3.17;;;3.07;;
10729;SDS011;5416;59.258;18.128;2023-04-01T05:47:23;2.97;;;2.87;;
10729;SDS011;5416;59.258;18.128;2023-04-01T05:49:50;2.93;;;2.83;;
10729;SDS011;5416;59.258;18.128;2023-04-01T05:52:17;3.20;;;3.10;;
10729;SDS011;5416;59.258;18.128;2023-04-01T05:54:46;3.47;;;3.37;;
10729;SDS011;5416;59.258;18.128;2023-04-01T05:57:14;3.50;;;3.40;;
10729;SDS011;5416;59.258;18.128;2023-04-01T05:59:41;3.07;;;2.97;;
10729;SDS011;5416;59.258;18.128;2023-04-01T06:02:08;3.63;;;3.53;;
10729;SDS011;5416;59.258;18.128;2023-04-01T06:04:37;3.50;;;3.40;;
10729;SDS011;5416;59.258;18.128;2023-04-01T06:07:08;3.73;;;3.63;;
10729;SDS011;5416;59.258;18.128;2023-04-01T06:09:37;2.97;;;2.87;;
10729;SDS011;5416;59.258;18.128;2023-04-01T06:12:11;3.40;;;3.30;;
10729;SDS011;5416;59.258;18.128;2023-04-01T06:14:43;3.67;;;3.57;;
10729;SDS011;5416;59.258;18.128;2023-04-01T06:17:18;3.00;;;2.90;;
10729;SDS011;5416;59.258;18.128;2023-04-01T06:19:50;3.40;;;3.30;;
10729;SDS011;5416;59.258;18.128;2023-04-01T06:25:18;3.30;;;3.20;;
10729;SDS011;5416;59.258;18.128;2023-04-01T06:27:55;3.47;;;3.37;;
10729;SDS011;5416;59.258;18.128;2023-04-01T06:30:38;3.30;;;3.20;;
10729;SDS011;5416;59.258;18.128;2023-04-01T06:33:20;3.93;;;3.83;;
10729;SDS011;5416;59.258;18.128;2023-04-01T06:38:41;3.43;;;3.33;;
10729;SDS011;5416;59.258;18.128;2023-04-01T06:41:17;3.50;;;3.40;;
10729;SDS011;5416;59.258;18.128;2023-04-01T06:43:52;4.00;;;3.90;;
10729;SDS011;5416;59.258;18.128;2023-04-01T06:46:23;3.90;;;3.80;;
10729;SDS011;5416;59.258;18.128;2023-04-01T06:48:56;3.40;;;3.30;;
10729;SDS011;5416;59.258;18.128;2023-04-01T06:51:27;3.53;;;3.43;;
10729;SDS011;5416;59.258;18.128;2023-04-01T06:53:59;3.70;;;3.60;;
10729;SDS011;5416;59.258;18.128;2023-04-01T06:56:30;3.10;;;3.00;;
10729;SDS011;5416;59.258;18.128;2023-04-01T06:58:59;3.63;;;3.53;;
10729;SDS011;5416;59.258;18.128;2023-04-01T07:01:29;3.87;;;3.77;;
10729;SDS011;5416;59.258;18.128;2023-04-01T07:04:00;3.30;;;3.20;;
10729;SDS011;5416;59.258;18.128;2023-04-01T07:06:30;3.83;;;3.73;;
10729;SDS011;5416;59.258;18.128;2023-04-01T07:08:59;3.53;;;3.43;;
10729;SDS011;5416;59.258;18.128;2023-04-01T07:11:29;3.17;;;3.07;;
10729;SDS011;5416;59.258;18.128;2023-04-01T07:14:00;3.77;;;3.67;;
10729;SDS011;5416;59.258;18.128;2023-04-01T07:16:29;3.70;;;3.60;;
10729;SDS011;5416;59.258;18.128;2023-04-01T07:18:58;3.90;;;3.80;;
10729;SDS011;5416;59.258;18.128;2023-04-01T07:21:29;3.57;;;3.47;;
10729;SDS011;5416;59.258;18.128;2023-04-01T07:23:57;3.57;;;3.47;;
10729;SDS011;5416;59.258;18.128;2023-04-01T07:26:26;3.57;;;3.47;;
10729;SDS011;5416;59.258;18.128;2023-04-01T07:28:54;3.83;;;3.73;;
10729;SDS011;5416;59.258;18.128;2023-04-01T07:31:29;3.60;;;3.50;;
10729;SDS011;5416;59.258;18.128;2023-04-01T07:34:01;3.60;;;3.50;;
10729;SDS011;5416;59.258;18.128;2023-04-01T07:36:33;3.80;;;3.70;;
10729;SDS011;5416;59.258;18.128;2023-04-01T07:39:06;3.47;;;3.37;;
10729;SDS011;5416;59.258;18.128;2023-04-01T07:41:38;3.97;;;3.87;;
10729;SDS011;5416;59.258;18.128;2023-04-01T07:44:10;3.80;;;3.70;;
10729;SDS011;5416;59.258;18.128;2023-04-01T07:46:49;3.97;;;3.87;;
10729;SDS011;5416;59.258;18.128;2023-04-01T07:49:22;3.87;;;3.77;;
10729;SDS011;5416;59.258;18.128;2023-04-01T07:51:53;3.97;;;3.87;;
10729;SDS011;5416;59.258;18.128;2023-04-01T07:54:25;3.73;;;3.63;;
10729;SDS011;5416;59.258;18.128;2023-04-01T07:56:55;3.40;;;3.30;;
10729;SDS011;5416;59.258;18.128;2023-04-01T07:59:26;3.70;;;3.60;;
10729;SDS011;5416;59.258;18.128;2023-04-01T08:02:01;4.10;;;4.00;;
10729;SDS011;5416;59.258;18.128;2023-04-01T08:04:36;3.40;;;3.30;;
10729;SDS011;5416;59.258;18.128;2023-04-01T08:07:08;3.03;;;2.93;;
10729;SDS011;5416;59.258;18.128;2023-04-01T08:09:39;4.07;;;3.97;;
10729;SDS011;5416;59.258;18.128;2023-04-01T08:12:11;3.57;;;3.47;;
10729;SDS011;5416;59.258;18.128;2023-04-01T08:14:44;3.80;;;3.70;;
10729;SDS011;5416;59.258;18.128;2023-04-01T08:17:15;3.83;;;3.73;;
10729;SDS011;5416;59.258;18.128;2023-04-01T08:19:57;3.80;;;3.70;;
10729;SDS011;5416;59.258;18.128;2023-04-01T08:22:28;3.67;;;3.57;;
10729;SDS011;5416;59.258;18.128;2023-04-01T08:24:57;3.47;;;3.37;;
10729;SDS011;5416;59.258;18.128;2023-04-01T08:27:28;3.67;;;3.57;;
10729;SDS011;5416;59.258;18.128;2023-04-01T08:30:01;3.60;;;3.50;;
10729;SDS011;5416;59.258;18.128;2023-04-01T08:32:32;3.87;;;3.77;;
10729;SDS011;5416;59.258;18.128;2023-04-01T08:35:08;3.83;;;3.73;;
10729;SDS011;5416;59.258;18.128;2023-04-01T08:37:37;3.37;;;3.27;;
10729;SDS011;5416;59.258;18.128;2023-04-01T08:40:13;4.07;;;3.97;;
10729;SDS011;5416;59.258;18.128;2023-04-01T08:42:46;3.60;;;3.50;;
10729;SDS011;5416;59.258;18.128;2023-04-01T08:51:03;3.70;;;3.60;;
10729;SDS011;5416;59.258;18.128;2023-04-01T08:53:50;3.97;;;3.88;;
10729;SDS011;5416;59.258;18.128;2023-04-01T08:56:20;3.55;;;3.45;;
10729;SDS011;5416;59.258;18.128;2023-04-01T08:58:59;3.47;;;3.38;;
10729;SDS011;5416;59.258;18.128;2023-04-01T09:04:24;3.50;;;3.40;;
10729;SDS011;5416;59.258;18.128;2023-04-01T09:06:57;3.63;;;3.53;;
10729;SDS011;5416;59.258;18.128;2023-04-01T09:09:38;3.55;;;3.45;;
10729;SDS011;5416;59.258;18.128;2023-04-01T09:12:14;3.88;;;3.78;;
10729;SDS011;5416;59.258;18.128;2023-04-01T09:14:52;4.00;;;3.90;;
10729;SDS011;5416;59.258;18.128;2023-04-01T09:20:25;4.13;;;4.03;;
10729;SDS011;5416;59.258;18.128;2023-04-01T09:23:10;4.17;;;4.07;;
10729;SDS011;5416;59.258;18.128;2023-04-01T09:25:49;3.73;;;3.63;;
10729;SDS011;5416;59.258;18.128;2023-04-01T09:28:19;4.17;;;4.07;;
10729;SDS011;5416;59.258;18.128;2023-04-01T09:30:52;3.53;;;3.43;;
10729;SDS011;5416;59.258;18.128;2023-04-01T09:33:28;3.93;;;3.83;;
10729;SDS011;5416;59.258;18.128;2023-04-01T09:36:06;3.73;;;3.63;;
10729;SDS011;5416;59.258;18.128;2023-04-01T09:38:39;3.87;;;3.77;;
10729;SDS011;5416;59.258;18.128;2023-04-01T09:41:13;4.20;;;4.10;;
10729;SDS011;5416;59.258;18.128;2023-04-01T09:43:47;3.87;;;3.77;;
10729;SDS011;5416;59.258;18.128;2023-04-01T09:46:23;3.70;;;3.60;;
10729;SDS011;5416;59.258;18.128;2023-04-01T09:49:09;3.57;;;3.47;;
10729;SDS011;5416;59.258;18.128;2023-04-01T09:51:45;4.00;;;3.90;;
10729;SDS011;5416;59.258;18.128;2023-04-01T09:54:20;3.57;;;3.47;;
10729;SDS011;5416;59.258;18.128;2023-04-01T09:56:58;3.30;;;3.20;;
10729;SDS011;5416;59.258;18.128;2023-04-01T09:59:45;3.67;;;3.57;;
10729;SDS011;5416;59.258;18.128;2023-04-01T10:07:56;3.97;;;3.87;;
10729;SDS011;5416;59.258;18.128;2023-04-01T10:13:30;4.03;;;3.93;;
10729;SDS011;5416;59.258;18.128;2023-04-01T10:16:22;4.50;;;4.40;;
10729;SDS011;5416;59.258;18.128;2023-04-01T10:18:58;3.80;;;3.70;;
10729;SDS011;5416;59.258;18.128;2023-04-01T10:24:37;4.10;;;4.00;;
10729;SDS011;5416;59.258;18.128;2023-04-01T10:33:03;4.17;;;4.07;;
10729;SDS011;5416;59.258;18.128;2023-04-01T10:38:52;4.07;;;3.97;;
10729;SDS011;5416;59.258;18.128;2023-04-01T10:41:31;4.10;;;4.00;;
10729;SDS011;5416;59.258;18.128;2023-04-01T10:44:15;3.63;;;3.53;;
10729;SDS011;5416;59.258;18.128;2023-04-01T10:55:32;4.03;;;3.93;;
10729;SDS011;5416;59.258;18.128;2023-04-01T10:58:10;4.00;;;3.90;;
10729;SDS011;5416;59.258;18.128;2023-04-01T11:00:54;3.80;;;3.70;;
10729;SDS011;5416;59.258;18.128;2023-04-01T11:06:33;4.30;;;4.20;;
10729;SDS011;5416;59.258;18.128;2023-04-01T11:12:05;3.73;;;3.63;;
10729;SDS011;5416;59.258;18.128;2023-04-01T11:14:50;3.87;;;3.77;;
10729;SDS011;5416;59.258;18.128;2023-04-01T11:17:25;4.10;;;4.00;;
10729;SDS011;5416;59.258;18.128;2023-04-01T11:20:13;3.97;;;3.87;;
10729;SDS011;5416;59.258;18.128;2023-04-01T11:22:46;4.47;;;4.37;;
10729;SDS011;5416;59.258;18.128;2023-04-01T11:25:36;4.20;;;4.10;;
10729;SDS011;5416;59.258;18.128;2023-04-01T11:28:18;3.90;;;3.80;;
10729;SDS011;5416;59.258;18.128;2023-04-01T11:30:53;4.17;;;4.07;;
10729;SDS011;5416;59.258;18.128;2023-04-01T11:33:25;4.53;;;4.43;;
10729;SDS011;5416;59.258;18.128;2023-04-01T11:35:57;4.07;;;3.97;;
10729;SDS011;5416;59.258;18.128;2023-04-01T11:41:15;4.10;;;4.00;;
10729;SDS011;5416;59.258;18.128;2023-04-01T11:43:52;4.27;;;4.17;;
10729;SDS011;5416;59.258;18.128;2023-04-01T11:46:24;4.00;;;3.90;;
10729;SDS011;5416;59.258;18.128;2023-04-01T11:48:55;3.90;;;3.80;;
10729;SDS011;5416;59.258;18.128;2023-04-01T11:51:29;4.20;;;4.10;;
10729;SDS011;5416;59.258;18.128;2023-04-01T11:54:00;4.07;;;3.97;;
10729;SDS011;5416;59.258;18.128;2023-04-01T11:56:34;4.20;;;4.10;;
10729;SDS011;5416;59.258;18.128;2023-04-01T11:59:17;4.23;;;4.13;;
10729;SDS011;5416;59.258;18.128;2023-04-01T12:01:54;3.87;;;3.77;;
10729;SDS011;5416;59.258;18.128;2023-04-01T12:07:12;3.83;;;3.73;;
10729;SDS011;5416;59.258;18.128;2023-04-01T12:09:44;4.17;;;4.07;;
10729;SDS011;5416;59.258;18.128;2023-04-01T12:12:16;3.73;;;3.63;;
10729;SDS011;5416;59.258;18.128;2023-04-01T12:14:47;4.20;;;4.10;;
10729;SDS011;5416;59.258;18.128;2023-04-01T12:17:21;3.70;;;3.60;;
10729;SDS011;5416;59.258;18.128;2023-04-01T12:19:53;4.67;;;4.50;;
10729;SDS011;5416;59.258;18.128;2023-04-01T12:22:28;4.30;;;4.20;;
10729;SDS011;5416;59.258;18.128;2023-04-01T12:25:07;4.10;;;4.00;;
10729;SDS011;5416;59.258;18.128;2023-04-01T12:27:41;4.13;;;4.03;;
10729;SDS011;5416;59.258;18.128;2023-04-01T12:33:18;4.23;;;4.13;;
10729;SDS011;5416;59.258;18.128;2023-04-01T12:35:53;4.40;;;4.30;;
10729;SDS011;5416;59.258;18.128;2023-04-01T12:38:25;4.70;;;4.53;;
10729;SDS011;5416;59.258;18.128;2023-04-01T12:41:06;4.50;;;4.40;;
10729;SDS011;5416;59.258;18.128;2023-04-01T12:46:22;4.53;;;4.43;;
10729;SDS011;5416;59.258;18.128;2023-04-01T12:51:42;3.70;;;3.60;;
10729;SDS011;5416;59.258;18.128;2023-04-01T12:57:10;4.30;;;4.20;;
10729;SDS011;5416;59.258;18.128;2023-04-01T12:59:47;4.90;;;4.70;;
10729;SDS011;5416;59.258;18.128;2023-04-01T13:02:21;4.50;;;4.40;;
10729;SDS011;5416;59.258;18.128;2023-04-01T13:04:56;3.93;;;3.83;;
10729;SDS011;5416;59.258;18.128;2023-04-01T13:07:32;4.63;;;4.53;;
10729;SDS011;5416;59.258;18.128;2023-04-01T13:10:06;4.37;;;4.27;;
10729;SDS011;5416;59.258;18.128;2023-04-01T13:12:39;4.90;;;4.70;;
10729;SDS011;5416;59.258;18.128;2023-04-01T13:15:17;4.37;;;4.27;;
10729;SDS011;5416;59.258;18.128;2023-04-01T13:17:49;4.17;;;4.07;;
10729;SDS011;5416;59.258;18.128;2023-04-01T13:20:20;4.23;;;4.13;;
10729;SDS011;5416;59.258;18.128;2023-04-01T13:22:55;3.93;;;3.83;;
10729;SDS011;5416;59.258;18.128;2023-04-01T13:25:29;4.57;;;4.47;;
10729;SDS011;5416;59.258;18.128;2023-04-01T13:28:01;3.97;;;3.87;;
10729;SDS011;5416;59.258;18.128;2023-04-01T13:30:33;4.20;;;4.10;;
10729;SDS011;5416;59.258;18.128;2023-04-01T13:33:04;4.17;;;4.07;;
10729;SDS011;5416;59.258;18.128;2023-04-01T13:35:35;4.17;;;4.07;;
10729;SDS011;5416;59.258;18.128;2023-04-01T13:38:08;3.93;;;3.83;;
10729;SDS011;5416;59.258;18.128;2023-04-01T13:40:43;3.97;;;3.87;;
10729;SDS011;5416;59.258;18.128;2023-04-01T13:43:14;4.10;;;4.00;;
10729;SDS011;5416;59.258;18.128;2023-04-01T13:45:49;3.97;;;3.87;;
10729;SDS011;5416;59.258;18.128;2023-04-01T13:53:56;3.87;;;3.77;;
10729;SDS011;5416;59.258;18.128;2023-04-01T13:56:29;4.17;;;4.07;;
10729;SDS011;5416;59.258;18.128;2023-04-01T13:59:07;3.53;;;3.43;;
10729;SDS011;5416;59.258;18.128;2023-04-01T14:01:39;4.13;;;4.03;;
10729;SDS011;5416;59.258;18.128;2023-04-01T14:04:28;3.60;;;3.50;;
10729;SDS011;5416;59.258;18.128;2023-04-01T14:06:59;3.70;;;3.60;;
10729;SDS011;5416;59.258;18.128;2023-04-01T14:09:43;4.00;;;3.90;;
10729;SDS011;5416;59.258;18.128;2023-04-01T14:12:13;4.20;;;4.10;;
10729;SDS011;5416;59.258;18.128;2023-04-01T14:14:49;3.43;;;3.33;;
10729;SDS011;5416;59.258;18.128;2023-04-01T14:17:22;4.23;;;4.13;;
10729;SDS011;5416;59.258;18.128;2023-04-01T14:19:56;4.30;;;4.20;;
10729;SDS011;5416;59.258;18.128;2023-04-01T14:22:29;4.17;;;4.07;;
10729;SDS011;5416;59.258;18.128;2023-04-01T14:25:06;3.50;;;3.40;;
10729;SDS011;5416;59.258;18.128;2023-04-01T14:27:49;3.87;;;3.77;;
10729;SDS011;5416;59.258;18.128;2023-04-01T14:30:31;3.73;;;3.63;;
10729;SDS011;5416;59.258;18.128;2023-04-01T14:33:04;4.13;;;4.03;;
10729;SDS011;5416;59.258;18.128;2023-04-01T14:35:37;4.03;;;3.93;;
10729;SDS011;5416;59.258;18.128;2023-04-01T14:41:00;3.97;;;3.87;;
10729;SDS011;5416;59.258;18.128;2023-04-01T14:46:17;3.33;;;3.23;;
10729;SDS011;5416;59.258;18.128;2023-04-01T14:48:51;4.20;;;4.10;;
10729;SDS011;5416;59.258;18.128;2023-04-01T14:51:21;3.53;;;3.43;;
10729;SDS011;5416;59.258;18.128;2023-04-01T14:53:52;3.93;;;3.83;;
10729;SDS011;5416;59.258;18.128;2023-04-01T14:56:36;3.80;;;3.70;;
10729;SDS011;5416;59.258;18.128;2023-04-01T14:59:04;3.43;;;3.33;;
10729;SDS011;5416;59.258;18.128;2023-04-01T15:01:35;4.73;;;4.53;;
10729;SDS011;5416;59.258;18.128;2023-04-01T15:04:12;3.60;;;3.50;;
10729;SDS011;5416;59.258;18.128;2023-04-01T15:06:48;4.17;;;4.07;;
10729;SDS011;5416;59.258;18.128;2023-04-01T15:09:20;3.87;;;3.77;;
10729;SDS011;5416;59.258;18.128;2023-04-01T15:11:54;4.03;;;3.93;;
10729;SDS011;5416;59.258;18.128;2023-04-01T15:14:30;3.70;;;3.60;;
10729;SDS011;5416;59.258;18.128;2023-04-01T15:17:05;4.23;;;4.13;;
10729;SDS011;5416;59.258;18.128;2023-04-01T15:19:42;3.70;;;3.60;;
10729;SDS011;5416;59.258;18.128;2023-04-01T15:25:05;3.43;;;3.33;;
10729;SDS011;5416;59.258;18.128;2023-04-01T15:27:36;3.83;;;3.73;;
10729;SDS011;5416;59.258;18.128;2023-04-01T15:30:27;4.30;;;4.20;;
10729;SDS011;5416;59.258;18.128;2023-04-01T15:32:58;3.53;;;3.43;;
10729;SDS011;5416;59.258;18.128;2023-04-01T15:35:32;3.70;;;3.60;;
10729;SDS011;5416;59.258;18.128;2023-04-01T15:38:03;4.00;;;3.90;;
10729;SDS011;5416;59.258;18.128;2023-04-01T15:40:33;4.33;;;4.23;;
10729;SDS011;5416;59.258;18.128;2023-04-01T15:43:09;4.00;;;3.90;;
10729;SDS011;5416;59.258;18.128;2023-04-01T15:45:42;3.73;;;3.63;;
10729;SDS011;5416;59.258;18.128;2023-04-01T15:48:16;3.40;;;3.30;;
10729;SDS011;5416;59.258;18.128;2023-04-01T15:51:02;3.43;;;3.33;;
10729;SDS011;5416;59.258;18.128;2023-04-01T15:53:42;3.10;;;3.00;;
10729;SDS011;5416;59.258;18.128;2023-04-01T15:56:19;2.90;;;2.80;;
10729;SDS011;5416;59.258;18.128;2023-04-01T15:58:54;4.07;;;3.97;;
10729;SDS011;5416;59.258;18.128;2023-04-01T16:01:26;3.77;;;3.67;;
10729;SDS011;5416;59.258;18.128;2023-04-01T16:03:57;3.47;;;3.37;;
10729;SDS011;5416;59.258;18.128;2023-04-01T16:06:39;3.57;;;3.47;;
10729;SDS011;5416;59.258;18.128;2023-04-01T16:09:17;3.60;;;3.50;;
10729;SDS011;5416;59.258;18.128;2023-04-01T16:11:50;4.13;;;4.03;;
10729;SDS011;5416;59.258;18.128;2023-04-01T16:14:28;3.60;;;3.50;;
10729;SDS011;5416;59.258;18.128;2023-04-01T16:17:05;3.97;;;3.87;;
10729;SDS011;5416;59.258;18.128;2023-04-01T16:19:41;3.80;;;3.70;;
10729;SDS011;5416;59.258;18.128;2023-04-01T16:22:13;4.03;;;3.93;;
10729;SDS011;5416;59.258;18.128;2023-04-01T16:24:43;3.40;;;3.30;;
10729;SDS011;5416;59.258;18.128;2023-04-01T16:27:13;3.67;;;3.57;;
10729;SDS011;5416;59.258;18.128;2023-04-01T16:29:45;3.77;;;3.67;;
10729;SDS011;5416;59.258;18.128;2023-04-01T16:32:18;3.40;;;3.30;;
10729;SDS011;5416;59.258;18.128;2023-04-01T16:34:54;3.57;;;3.47;;
10729;SDS011;5416;59.258;18.128;2023-04-01T16:37:28;3.87;;;3.77;;
10729;SDS011;5416;59.258;18.128;2023-04-01T16:40:01;3.67;;;3.57;;
10729;SDS011;5416;59.258;18.128;2023-04-01T16:42:32;3.17;;;3.07;;
10729;SDS011;5416;59.258;18.128;2023-04-01T16:45:08;3.20;;;3.10;;
10729;SDS011;5416;59.258;18.128;2023-04-01T16:47:45;3.93;;;3.83;;